📊 John's Weather Station

Last reading: 2024-04-04 18:06:45

TEMPERATURE

--

Temperature 20 readings
Min Max Average
20.25 °C 22.93 °C 22.09 °C

HUMIDITY

--

Humidity 20 readings
Min Max Average
55.48 % 76.53 % 68.62 %

View Latest 20 Readings

ID Sensor Location Temp Humid Bar Timestamp
4527 BME280 Danniverke 22.93 74.11 993.81 2024-04-04 18:06:45
4526 BME280 Danniverke 22.87 75.10 993.85 2024-04-04 17:56:40
4525 BME280 Danniverke 22.78 74.47 993.82 2024-04-04 17:46:34
4524 BME280 Danniverke 22.48 67.52 993.07 2024-03-23 22:03:28
4523 BME280 Danniverke 22.53 67.17 993.04 2024-03-23 21:53:22
4522 BME280 Danniverke 22.52 67.02 992.99 2024-03-23 21:43:16
4521 BME280 Danniverke 22.51 66.33 992.92 2024-03-23 21:33:10
4520 BME280 Danniverke 22.41 65.93 992.87 2024-03-23 21:23:04
4519 BME280 Danniverke 20.90 62.63 1005.08 2024-03-20 17:47:44
4518 BME280 Danniverke 20.53 62.27 1005.15 2024-03-20 17:37:38
4517 BME280 Danniverke 20.39 60.86 1005.21 2024-03-20 17:27:32
4516 BME280 Danniverke 20.25 60.70 1005.29 2024-03-20 17:17:26
4515 BME280 Danniverke 20.63 69.18 1007.57 2024-03-19 23:30:36
4514 BME280 Danniverke 22.66 71.03 1005.99 2024-03-19 18:51:07
4513 BME280 Danniverke 22.84 72.63 1005.91 2024-03-19 18:41:01
4512 BME280 Danniverke 22.89 76.53 1005.92 2024-03-19 18:30:55
4511 BME280 Danniverke 22.91 76.07 1005.89 2024-03-19 18:20:50
4510 BME280 Danniverke 22.91 75.54 1005.93 2024-03-19 18:10:44
4509 BME280 Danniverke 22.60 71.85 1005.85 2024-03-19 18:00:38
4508 BME280 Danniverke 21.28 55.48 1005.09 2024-03-19 16:29:43